createdAt,value
2018-02-03T00:01:09.991Z,7.88
2018-02-03T00:03:38.418Z,7.81
2018-02-03T00:06:06.866Z,7.63
2018-02-03T00:08:35.298Z,7.69
2018-02-03T00:11:03.700Z,7.72
2018-02-03T00:13:32.137Z,7.66
2018-02-03T00:16:00.577Z,7.52
2018-02-03T00:18:29.016Z,7.60
2018-02-03T00:20:57.432Z,7.64
2018-02-03T00:23:25.884Z,7.65
2018-02-03T00:25:54.334Z,7.57
2018-02-03T00:28:22.837Z,7.62
2018-02-03T00:30:51.313Z,7.58
2018-02-03T00:33:19.809Z,7.58
2018-02-03T00:35:48.269Z,7.55
2018-02-03T00:38:16.779Z,7.49
2018-02-03T00:40:45.241Z,7.41
2018-02-03T00:43:13.763Z,7.39
2018-02-03T00:45:42.164Z,7.34
2018-02-03T00:48:10.604Z,7.32
2018-02-03T00:50:39.102Z,6.96
2018-02-03T00:53:07.600Z,6.91
2018-02-03T00:55:36.097Z,7.07
2018-02-03T00:58:04.567Z,7.08
2018-02-03T01:00:33.081Z,7.10
2018-02-03T01:03:01.589Z,7.08
2018-02-03T01:05:30.097Z,7.00
2018-02-03T01:07:58.601Z,7.01
2018-02-03T01:10:27.097Z,6.96
2018-02-03T01:12:55.646Z,6.80
2018-02-03T01:15:24.132Z,6.72
2018-02-03T01:17:52.630Z,6.64
2018-02-03T01:20:21.137Z,6.52
2018-02-03T01:22:49.589Z,6.09
2018-02-03T01:25:18.045Z,6.31
2018-02-03T01:27:46.557Z,6.37
2018-02-03T01:30:15.032Z,6.27
2018-02-03T01:32:43.502Z,6.42
2018-02-03T01:35:11.990Z,6.32
2018-02-03T01:37:40.515Z,6.18
2018-02-03T01:40:09.005Z,6.27
2018-02-03T01:42:37.474Z,6.35
2018-02-03T01:45:05.969Z,6.37
2018-02-03T01:47:46.066Z,6.32
2018-02-03T01:50:14.572Z,6.19
2018-02-03T01:52:43.050Z,6.20
2018-02-03T01:55:11.554Z,6.28
2018-02-03T01:57:40.017Z,6.12
2018-02-03T02:00:08.531Z,5.90
2018-02-03T02:02:37.059Z,6.05
2018-02-03T02:05:05.537Z,6.25
2018-02-03T02:07:33.997Z,6.34
2018-02-03T02:10:02.490Z,6.22
2018-02-03T02:12:30.989Z,6.09
2018-02-03T02:14:59.453Z,6.18
2018-02-03T02:17:27.996Z,6.42
2018-02-03T02:19:56.520Z,6.46
2018-02-03T02:22:24.969Z,6.55
2018-02-03T02:24:53.458Z,6.61
2018-02-03T02:27:21.957Z,6.60
2018-02-03T02:29:50.469Z,6.76
2018-02-03T02:32:18.957Z,6.90
2018-02-03T02:34:47.403Z,7.00
2018-02-03T02:37:15.898Z,7.02
2018-02-03T02:39:44.401Z,7.01
2018-02-03T02:42:12.854Z,7.07
2018-02-03T02:44:41.398Z,7.15
2018-02-03T02:47:09.905Z,7.19
2018-02-03T02:49:38.359Z,7.25
2018-02-03T02:52:06.857Z,7.26
2018-02-03T02:54:35.354Z,7.29
2018-02-03T02:57:03.816Z,7.19
2018-02-03T02:59:32.294Z,7.08
2018-02-03T03:02:00.821Z,7.21
2018-02-03T03:04:29.288Z,7.11
2018-02-03T03:06:57.785Z,6.96
2018-02-03T03:09:26.269Z,6.74
2018-02-03T03:11:54.766Z,6.54
2018-02-03T03:14:23.297Z,6.84
2018-02-03T03:16:51.790Z,6.95
2018-02-03T03:19:20.246Z,6.86
2018-02-03T03:21:48.741Z,6.97
2018-02-03T03:24:17.237Z,6.72
2018-02-03T03:26:45.737Z,6.80
2018-02-03T03:29:14.229Z,6.91
2018-02-03T03:31:42.701Z,6.82
2018-02-03T03:34:11.197Z,6.80
2018-02-03T03:36:39.650Z,6.79
2018-02-03T03:39:08.101Z,6.66
2018-02-03T03:41:36.575Z,6.46
2018-02-03T03:44:05.072Z,6.55
2018-02-03T03:46:33.538Z,6.55
2018-02-03T03:49:02.037Z,6.68
2018-02-03T03:51:30.558Z,6.67
2018-02-03T03:53:59.090Z,6.86
2018-02-03T03:56:27.585Z,6.93
2018-02-03T03:58:56.081Z,6.92
2018-02-03T04:01:24.562Z,6.78
2018-02-03T04:03:53.070Z,6.89
2018-02-03T04:06:21.529Z,6.93
2018-02-03T04:08:50.053Z,6.97
2018-02-03T04:11:18.556Z,7.00
2018-02-03T04:13:47.047Z,7.01
2018-02-03T04:16:15.510Z,6.98
2018-02-03T04:18:44.040Z,7.05
2018-02-03T04:21:12.530Z,7.08
2018-02-03T04:23:41.046Z,7.07
2018-02-03T04:26:09.533Z,7.02
2018-02-03T04:28:38.009Z,7.00
2018-02-03T04:31:06.539Z,7.04
2018-02-03T04:33:35.049Z,7.03
2018-02-03T04:36:03.505Z,7.05
2018-02-03T04:38:32.010Z,7.02
2018-02-03T04:41:00.506Z,6.93
2018-02-03T04:43:29.006Z,6.89
2018-02-03T04:45:57.457Z,6.89
2018-02-03T04:48:25.971Z,6.81
2018-02-03T04:50:54.425Z,6.90
2018-02-03T04:53:22.886Z,6.86
2018-02-03T04:55:51.404Z,6.86
2018-02-03T04:58:20.609Z,6.91
2018-02-03T05:00:49.102Z,6.90
2018-02-03T05:03:17.633Z,6.54
2018-02-03T05:05:46.121Z,6.42
2018-02-03T05:08:14.614Z,6.32
2018-02-03T05:10:43.124Z,6.46
2018-02-03T05:13:11.607Z,6.50
2018-02-03T05:15:40.109Z,6.61
2018-02-03T05:18:08.605Z,6.70
2018-02-03T05:20:37.057Z,6.61
2018-02-03T05:23:05.552Z,6.57
2018-02-03T05:25:34.041Z,6.52
2018-02-03T05:28:02.498Z,6.50
2018-02-03T05:30:31.025Z,6.41
2018-02-03T05:32:59.537Z,6.27
2018-02-03T05:35:28.017Z,6.28
2018-02-03T05:37:56.537Z,6.33
2018-02-03T05:40:25.065Z,6.18
2018-02-03T05:42:53.636Z,6.17
2018-02-03T05:45:23.001Z,6.28
2018-02-03T05:47:51.562Z,6.33
2018-02-03T05:50:20.014Z,6.51
2018-02-03T05:52:48.590Z,6.41
2018-02-03T05:55:17.026Z,6.47
2018-02-03T05:57:45.477Z,6.34
2018-02-03T06:00:13.977Z,6.41
2018-02-03T06:02:42.433Z,6.57
2018-02-03T06:05:10.890Z,6.67
2018-02-03T06:07:39.391Z,6.29
2018-02-03T06:10:07.889Z,6.37
2018-02-03T06:12:36.355Z,6.32
2018-02-03T06:15:04.869Z,6.43
2018-02-03T06:17:33.332Z,6.35
2018-02-03T06:20:01.792Z,6.47
2018-02-03T06:22:30.297Z,6.57
2018-02-03T06:24:58.796Z,6.55
2018-02-03T06:27:27.311Z,6.56
2018-02-03T06:29:55.795Z,6.63
2018-02-03T06:32:24.245Z,6.62
2018-02-03T06:34:52.777Z,6.74
2018-02-03T06:37:21.259Z,6.79
2018-02-03T06:39:49.769Z,7.06
2018-02-03T06:42:18.246Z,7.21
2018-02-03T06:44:46.740Z,7.29
2018-02-03T06:47:15.230Z,7.35
2018-02-03T06:49:43.753Z,7.40
2018-02-03T06:52:12.279Z,7.37
2018-02-03T06:54:40.753Z,7.46
2018-02-03T06:57:09.249Z,7.35
2018-02-03T06:59:37.773Z,7.34
2018-02-03T07:02:06.279Z,7.51
2018-02-03T07:04:34.783Z,7.69
2018-02-03T07:07:03.251Z,7.78
2018-02-03T07:09:31.773Z,7.85
2018-02-03T07:12:00.315Z,7.86
2018-02-03T07:14:28.814Z,7.93
2018-02-03T07:16:57.306Z,8.06
2018-02-03T07:19:25.762Z,8.12
2018-02-03T07:21:54.263Z,8.16
2018-02-03T07:24:22.802Z,8.23
2018-02-03T07:26:51.261Z,8.36
2018-02-03T07:29:19.833Z,8.43
2018-02-03T07:31:48.333Z,8.54
2018-02-03T07:34:16.815Z,8.69
2018-02-03T07:36:45.338Z,8.82
2018-02-03T07:39:13.819Z,8.88
2018-02-03T07:41:42.305Z,9.09
2018-02-03T07:44:10.779Z,9.22
2018-02-03T07:46:39.325Z,9.48
2018-02-03T07:49:07.782Z,9.75
2018-02-03T07:51:36.277Z,9.74
2018-02-03T07:54:04.753Z,10.04
2018-02-03T07:56:33.321Z,10.14
2018-02-03T07:59:01.785Z,10.24
2018-02-03T08:01:30.266Z,10.46
2018-02-03T08:03:58.767Z,10.72
2018-02-03T08:06:27.230Z,10.93
2018-02-03T08:08:55.742Z,11.03
2018-02-03T08:11:24.227Z,11.19
2018-02-03T08:13:52.688Z,11.26
2018-02-03T08:16:21.198Z,11.51
2018-02-03T08:18:49.677Z,11.65
2018-02-03T08:21:18.170Z,12.00
2018-02-03T08:23:46.685Z,12.01
2018-02-03T08:26:15.230Z,12.11
2018-02-03T08:28:43.699Z,12.20
2018-02-03T08:31:12.197Z,12.15
2018-02-03T08:33:40.660Z,12.11
2018-02-03T08:36:09.139Z,12.25
2018-02-03T08:38:37.649Z,12.52
2018-02-03T08:41:06.144Z,12.58
2018-02-03T08:43:34.606Z,12.68
2018-02-03T08:46:03.200Z,12.84
2018-02-03T08:48:31.701Z,12.84
2018-02-03T08:51:00.209Z,12.85
2018-02-03T08:53:28.703Z,12.61
2018-02-03T08:55:57.213Z,12.75
2018-02-03T08:58:25.730Z,12.46
2018-02-03T09:00:54.229Z,12.45
2018-02-03T09:03:22.737Z,12.58
2018-02-03T09:05:51.231Z,12.79
2018-02-03T09:08:19.690Z,12.59
2018-02-03T09:10:48.162Z,12.87
2018-02-03T09:13:16.672Z,13.00
2018-02-03T09:15:45.174Z,12.93
2018-02-03T09:18:13.725Z,12.79
2018-02-03T09:20:42.235Z,13.10
2018-02-03T09:23:10.754Z,13.16
2018-02-03T09:25:39.217Z,13.06
2018-02-03T09:28:07.720Z,12.84
2018-02-03T09:30:36.209Z,12.98
2018-02-03T09:33:04.705Z,13.06
2018-02-03T09:35:33.210Z,12.98
2018-02-03T09:38:01.719Z,13.14
2018-02-03T09:40:30.231Z,13.34
2018-02-03T09:42:58.704Z,13.55
2018-02-03T09:45:27.238Z,13.34
2018-02-03T09:47:55.711Z,13.56
2018-02-03T09:50:24.205Z,13.52
2018-02-03T09:52:52.739Z,13.58
2018-02-03T09:55:21.230Z,13.89
2018-02-03T09:57:49.725Z,13.79
2018-02-03T10:00:18.215Z,14.00
2018-02-03T10:02:46.654Z,13.99
2018-02-03T10:05:15.102Z,13.98
2018-02-03T10:07:43.625Z,14.39
2018-02-03T10:10:12.087Z,14.38
2018-02-03T10:12:40.613Z,14.58
2018-02-03T10:15:09.073Z,14.68
2018-02-03T10:17:37.622Z,14.51
2018-02-03T10:20:06.100Z,14.69
2018-02-03T10:22:34.599Z,14.80
2018-02-03T10:25:03.093Z,14.86
2018-02-03T10:27:31.568Z,15.12
2018-02-03T10:30:00.089Z,15.26
2018-02-03T10:32:28.600Z,15.55
2018-02-03T10:34:57.093Z,15.66
2018-02-03T10:37:25.554Z,15.91
2018-02-03T10:39:54.088Z,16.17
2018-02-03T10:42:22.550Z,16.37
2018-02-03T10:44:51.049Z,16.51
2018-02-03T10:47:19.545Z,16.69
2018-02-03T10:49:48.086Z,16.85
2018-02-03T10:52:16.550Z,16.91
2018-02-03T10:54:45.031Z,17.18
2018-02-03T10:57:13.539Z,17.31
2018-02-03T10:59:42.057Z,17.52
2018-02-03T11:02:10.546Z,17.48
2018-02-03T11:04:39.012Z,17.80
2018-02-03T11:07:07.510Z,17.99
2018-02-03T11:09:36.010Z,18.10
2018-02-03T11:12:04.498Z,17.95
2018-02-03T11:14:32.970Z,18.18
2018-02-03T11:17:01.540Z,17.90
2018-02-03T11:19:30.007Z,18.08
2018-02-03T11:21:58.581Z,18.21
2018-02-03T11:24:27.053Z,18.21
2018-02-03T11:26:55.569Z,18.21
2018-02-03T11:29:24.025Z,18.03
2018-02-03T11:31:52.490Z,17.98
2018-02-03T11:34:20.994Z,18.03
2018-02-03T11:36:49.473Z,17.88
2018-02-03T11:39:17.985Z,17.77
2018-02-03T11:41:46.477Z,17.80
2018-02-03T11:44:15.005Z,17.76
2018-02-03T11:46:43.525Z,17.52
2018-02-03T11:49:12.042Z,17.45
2018-02-03T11:51:40.550Z,17.60
2018-02-03T11:54:09.008Z,17.29
2018-02-03T11:56:37.509Z,17.60
2018-02-03T11:59:05.991Z,17.68
2018-02-03T12:01:34.517Z,17.73
2018-02-03T12:04:03.032Z,17.75
2018-02-03T12:06:31.500Z,17.58
2018-02-03T12:08:59.993Z,17.73
2018-02-03T12:11:28.453Z,17.42
2018-02-03T12:13:56.932Z,17.57
2018-02-03T12:16:25.434Z,17.60
2018-02-03T12:18:53.948Z,17.66
2018-02-03T12:21:22.401Z,17.73
2018-02-03T12:23:50.901Z,17.77
2018-02-03T12:26:19.424Z,17.89
2018-02-03T12:28:47.969Z,17.83
2018-02-03T12:31:16.463Z,17.88
2018-02-03T12:33:44.913Z,17.87
2018-02-03T12:36:14.305Z,18.00
2018-02-03T12:38:42.816Z,18.02
2018-02-03T12:41:11.309Z,18.09
2018-02-03T12:43:39.817Z,18.17
2018-02-03T12:46:08.286Z,18.24
2018-02-03T12:48:36.823Z,18.32
2018-02-03T12:51:05.325Z,18.44
2018-02-03T12:53:33.795Z,18.50
2018-02-03T12:56:02.251Z,18.58
2018-02-03T12:58:30.784Z,18.61
2018-02-03T13:00:59.301Z,18.59
2018-02-03T13:03:27.813Z,18.52
2018-02-03T13:05:56.338Z,18.55
2018-02-03T13:08:24.839Z,18.55
2018-02-03T13:10:53.349Z,18.50
2018-02-03T13:13:21.834Z,18.42
2018-02-03T13:15:50.325Z,18.19
2018-02-03T13:18:18.814Z,18.32
2018-02-03T13:20:47.325Z,18.14
2018-02-03T13:23:15.801Z,18.18
2018-02-03T13:25:44.301Z,18.18
2018-02-03T13:28:12.795Z,18.12
2018-02-03T13:30:41.261Z,18.10
2018-02-03T13:33:09.779Z,18.08
2018-02-03T13:35:38.248Z,18.05
2018-02-03T13:38:06.741Z,17.87
2018-02-03T13:40:35.217Z,18.02
2018-02-03T13:43:03.722Z,18.05
2018-02-03T13:45:32.262Z,18.01
2018-02-03T13:48:00.735Z,17.99
2018-02-03T13:50:29.241Z,17.94
2018-02-03T13:52:57.749Z,17.92
2018-02-03T13:55:26.245Z,17.87
2018-02-03T13:57:54.705Z,17.87
2018-02-03T14:00:23.223Z,17.79
2018-02-03T14:02:51.694Z,17.71
2018-02-03T14:05:20.153Z,17.72
2018-02-03T14:07:48.621Z,17.72
2018-02-03T14:10:17.154Z,17.74
2018-02-03T14:12:45.647Z,17.73
2018-02-03T14:15:14.114Z,17.72
2018-02-03T14:17:42.578Z,17.70
2018-02-03T14:20:11.081Z,17.53
2018-02-03T14:22:39.594Z,17.57
2018-02-03T14:25:08.907Z,17.66
2018-02-03T14:27:37.428Z,17.58
2018-02-03T14:30:05.927Z,17.49
2018-02-03T14:32:34.429Z,17.40
2018-02-03T14:35:02.971Z,17.34
2018-02-03T14:37:31.473Z,17.34
2018-02-03T14:39:59.952Z,17.45
2018-02-03T14:42:28.459Z,17.35
2018-02-03T14:44:56.917Z,17.13
2018-02-03T14:47:25.422Z,17.22
2018-02-03T14:49:53.918Z,17.25
2018-02-03T14:52:22.369Z,17.19
2018-02-03T14:54:50.862Z,17.14
2018-02-03T14:57:19.357Z,17.09
2018-02-03T14:59:47.857Z,17.00
2018-02-03T15:02:16.358Z,16.94
2018-02-03T15:04:44.817Z,16.86
2018-02-03T15:07:13.264Z,16.83
2018-02-03T15:09:41.761Z,16.83
2018-02-03T15:12:10.245Z,16.84
2018-02-03T15:14:38.708Z,16.84
2018-02-03T15:17:07.191Z,16.82
2018-02-03T15:19:35.653Z,16.83
2018-02-03T15:22:04.123Z,16.77
2018-02-03T15:24:32.606Z,16.86
2018-02-03T15:27:01.105Z,16.81
2018-02-03T15:29:29.585Z,16.75
2018-02-03T15:31:58.050Z,16.64
2018-02-03T15:34:26.553Z,16.59
2018-02-03T15:36:54.995Z,16.49
2018-02-03T15:39:23.500Z,16.51
2018-02-03T15:41:52.017Z,16.57
2018-02-03T15:44:20.496Z,16.67
2018-02-03T15:46:49.009Z,16.61
2018-02-03T15:49:17.505Z,16.55
2018-02-03T15:51:45.965Z,16.56
2018-02-03T15:54:14.465Z,16.52
2018-02-03T15:56:42.972Z,16.52
2018-02-03T15:59:11.458Z,16.48
2018-02-03T16:01:39.927Z,16.52
2018-02-03T16:04:08.434Z,16.49
2018-02-03T16:06:36.954Z,16.28
2018-02-03T16:09:05.430Z,16.30
2018-02-03T16:11:33.885Z,16.24
2018-02-03T16:14:02.381Z,16.16
2018-02-03T16:16:30.894Z,16.16
2018-02-03T16:18:59.357Z,15.95
2018-02-03T16:21:27.879Z,15.98
2018-02-03T16:23:56.379Z,16.04
2018-02-03T16:26:24.844Z,16.14
2018-02-03T16:28:53.367Z,16.16
2018-02-03T16:31:21.871Z,16.23
2018-02-03T16:33:50.367Z,16.25
2018-02-03T16:36:18.829Z,16.30
2018-02-03T16:38:47.343Z,16.15
2018-02-03T16:41:15.813Z,16.10
2018-02-03T16:43:44.321Z,16.07
2018-02-03T16:46:12.782Z,16.06
2018-02-03T16:48:41.250Z,15.94
2018-02-03T16:51:09.773Z,15.87
2018-02-03T16:53:38.322Z,15.82
2018-02-03T16:56:06.766Z,15.76
2018-02-03T16:58:35.298Z,15.86
2018-02-03T17:01:03.797Z,15.86
2018-02-03T17:03:32.281Z,15.91
2018-02-03T17:06:00.810Z,15.93
2018-02-03T17:08:29.275Z,15.93
2018-02-03T17:13:32.442Z,15.89
2018-02-03T17:16:00.945Z,15.55
2018-02-03T17:18:29.449Z,15.54
2018-02-03T17:20:57.968Z,15.60
2018-02-03T17:23:26.505Z,15.61
2018-02-03T17:25:55.046Z,15.63
2018-02-03T17:28:23.549Z,15.66
2018-02-03T17:30:52.003Z,15.58
2018-02-03T17:33:20.495Z,15.74
2018-02-03T17:35:49.030Z,15.76
2018-02-03T17:38:23.015Z,15.70
2018-02-03T17:40:51.511Z,15.63
2018-02-03T17:43:20.045Z,15.64
2018-02-03T17:45:53.981Z,15.63
2018-02-03T17:48:22.486Z,15.59
2018-02-03T17:50:50.989Z,15.55
2018-02-03T17:53:19.504Z,15.41
2018-02-03T17:55:53.409Z,15.30
2018-02-03T17:58:21.993Z,15.24
2018-02-03T18:00:50.490Z,15.34
2018-02-03T18:03:18.953Z,15.24
2018-02-03T18:05:47.445Z,15.34
2018-02-03T18:08:15.908Z,15.27
2018-02-03T18:10:44.410Z,15.04
2018-02-03T18:13:12.949Z,14.90
2018-02-03T18:15:41.450Z,14.88
2018-02-03T18:18:09.910Z,14.86
2018-02-03T18:20:38.394Z,14.94
2018-02-03T18:23:06.910Z,14.98
2018-02-03T18:25:35.409Z,14.89
2018-02-03T18:28:03.872Z,14.81
2018-02-03T18:30:32.404Z,14.83
2018-02-03T18:33:00.867Z,14.62
2018-02-03T18:35:29.365Z,14.68
2018-02-03T18:37:57.833Z,14.79
2018-02-03T18:40:26.384Z,14.83
2018-02-03T18:42:54.849Z,14.83
2018-02-03T18:45:47.009Z,14.82
2018-02-03T18:48:15.482Z,14.86
2018-02-03T18:50:43.998Z,14.85
2018-02-03T18:53:12.454Z,14.94
2018-02-03T18:55:40.913Z,14.96
2018-02-03T18:58:09.405Z,14.97
2018-02-03T19:00:37.885Z,14.86
2018-02-03T19:03:06.410Z,14.84
2018-02-03T19:05:34.887Z,14.89
2018-02-03T19:08:03.399Z,14.80
2018-02-03T19:10:31.858Z,14.62
2018-02-03T19:13:00.349Z,14.56
2018-02-03T19:15:28.863Z,14.55
2018-02-03T19:17:57.358Z,14.69
2018-02-03T19:20:25.906Z,14.72
2018-02-03T19:22:54.382Z,14.85
2018-02-03T19:25:22.874Z,14.91
2018-02-03T19:27:51.412Z,14.92
2018-02-03T19:30:19.902Z,15.07
2018-02-03T19:32:48.354Z,15.08
2018-02-03T19:35:16.863Z,15.15
2018-02-03T19:37:45.314Z,15.26
2018-02-03T19:40:13.805Z,15.32
2018-02-03T19:42:42.270Z,15.35
2018-02-03T19:45:10.763Z,15.29
2018-02-03T19:47:39.245Z,15.36
2018-02-03T19:50:07.697Z,15.29
2018-02-03T19:52:36.161Z,15.01
2018-02-03T19:55:04.709Z,14.99
2018-02-03T19:57:33.177Z,15.05
2018-02-03T20:00:01.674Z,15.15
2018-02-03T20:02:30.169Z,15.13
2018-02-03T20:04:58.678Z,15.06
2018-02-03T20:07:27.118Z,15.03
2018-02-03T20:09:55.633Z,15.02
2018-02-03T20:12:24.116Z,15.06
2018-02-03T20:14:52.633Z,15.06
2018-02-03T20:17:21.137Z,15.17
2018-02-03T20:19:49.662Z,15.13
2018-02-03T20:22:18.157Z,14.91
2018-02-03T20:24:46.629Z,14.89
2018-02-03T20:27:15.186Z,14.84
2018-02-03T20:29:43.646Z,14.74
2018-02-03T20:32:12.106Z,14.70
2018-02-03T20:34:40.598Z,14.79
2018-02-03T20:37:09.106Z,14.85
2018-02-03T20:39:37.563Z,14.94
2018-02-03T20:42:06.061Z,14.69
2018-02-03T20:44:34.593Z,14.63
2018-02-03T20:47:03.062Z,14.64
2018-02-03T20:49:31.578Z,14.53
2018-02-03T20:52:00.128Z,14.59
2018-02-03T20:54:28.590Z,14.77
2018-02-03T20:56:57.085Z,14.91
2018-02-03T20:59:25.555Z,14.99
2018-02-03T21:01:54.020Z,15.05
2018-02-03T21:04:22.462Z,15.04
2018-02-03T21:06:50.945Z,14.89
2018-02-03T21:09:19.429Z,14.80
2018-02-03T21:11:47.868Z,14.73
2018-02-03T21:14:16.399Z,14.78
2018-02-03T21:16:44.853Z,14.94
2018-02-03T21:19:13.349Z,15.03
2018-02-03T21:21:41.794Z,15.01
2018-02-03T21:24:10.300Z,15.16
2018-02-03T21:26:38.761Z,15.14
2018-02-03T21:29:07.249Z,15.29
2018-02-03T21:31:35.710Z,15.35
2018-02-03T21:34:04.190Z,15.34
2018-02-03T21:36:32.690Z,15.37
2018-02-03T21:39:01.205Z,15.31
2018-02-03T21:41:29.718Z,15.37
2018-02-03T21:43:58.191Z,15.42
2018-02-03T21:46:26.686Z,15.18
2018-02-03T21:48:55.180Z,15.25
2018-02-03T21:51:23.666Z,15.16
2018-02-03T21:53:52.113Z,14.93
2018-02-03T21:56:20.598Z,14.99
2018-02-03T21:58:49.057Z,14.77
2018-02-03T22:01:17.545Z,14.63
2018-02-03T22:03:46.033Z,14.78
2018-02-03T22:06:14.493Z,14.64
2018-02-03T22:08:43.007Z,14.73
2018-02-03T22:11:11.525Z,14.70
2018-02-03T22:13:40.025Z,14.78
2018-02-03T22:16:08.539Z,14.86
2018-02-03T22:18:37.005Z,14.91
2018-02-03T22:21:05.512Z,15.07
2018-02-03T22:23:34.028Z,15.21
2018-02-03T22:26:02.521Z,15.31
2018-02-03T22:28:30.970Z,15.50
2018-02-03T22:30:59.456Z,15.55
2018-02-03T22:33:27.909Z,15.50
2018-02-03T22:35:56.432Z,15.46
2018-02-03T22:38:24.954Z,15.47
2018-02-03T22:40:53.424Z,15.48
2018-02-03T22:43:21.913Z,15.40
2018-02-03T22:45:50.362Z,15.40
2018-02-03T22:48:18.850Z,15.25
2018-02-03T22:50:47.345Z,15.12
2018-02-03T22:53:15.793Z,15.10
2018-02-03T22:55:44.305Z,14.96
2018-02-03T22:58:12.761Z,14.84
2018-02-03T23:00:41.270Z,14.75
2018-02-03T23:03:09.807Z,14.75
2018-02-03T23:05:38.249Z,14.67
2018-02-03T23:08:06.746Z,14.66
2018-02-03T23:10:35.254Z,14.73
2018-02-03T23:13:03.706Z,14.69
2018-02-03T23:15:32.214Z,14.70
2018-02-03T23:18:02.762Z,14.67
2018-02-03T23:20:31.346Z,14.78
2018-02-03T23:22:59.873Z,14.90
2018-02-03T23:25:28.322Z,14.89
2018-02-03T23:27:56.815Z,14.74
2018-02-03T23:30:25.666Z,14.58
2018-02-03T23:32:54.158Z,14.54
2018-02-03T23:35:22.650Z,14.47
2018-02-03T23:37:51.122Z,14.42
2018-02-03T23:40:19.578Z,14.48
2018-02-03T23:42:48.066Z,14.57
2018-02-03T23:45:16.522Z,14.59
2018-02-03T23:47:45.042Z,14.61
2018-02-03T23:50:13.549Z,14.68
2018-02-03T23:52:42.005Z,14.70
2018-02-03T23:55:10.458Z,14.77
2018-02-03T23:57:38.932Z,14.70
